sensor_id;sensor_type;location;lat;lon;timestamp;temperature;humidity
15262;DHT22;7733;51.554;13.590;2023-02-02T00:01:28;3.90;99.90
15262;DHT22;7733;51.554;13.590;2023-02-02T00:03:55;3.90;99.90
15262;DHT22;7733;51.554;13.590;2023-02-02T00:06:24;3.90;99.90
15262;DHT22;7733;51.554;13.590;2023-02-02T00:08:51;3.90;99.90
15262;DHT22;7733;51.554;13.590;2023-02-02T00:11:18;3.90;99.90
15262;DHT22;7733;51.554;13.590;2023-02-02T00:13:45;3.90;99.90
15262;DHT22;7733;51.554;13.590;2023-02-02T00:18:57;3.90;99.90
15262;DHT22;7733;51.554;13.590;2023-02-02T00:21:24;3.80;99.90
15262;DHT22;7733;51.554;13.590;2023-02-02T00:23:50;3.90;99.90
15262;DHT22;7733;51.554;13.590;2023-02-02T00:26:17;3.80;99.90
15262;DHT22;7733;51.554;13.590;2023-02-02T00:28:44;3.70;99.90
15262;DHT22;7733;51.554;13.590;2023-02-02T00:31:10;3.70;99.90
15262;DHT22;7733;51.554;13.590;2023-02-02T00:33:36;3.70;99.90
15262;DHT22;7733;51.554;13.590;2023-02-02T00:36:03;3.70;99.90
15262;DHT22;7733;51.554;13.590;2023-02-02T00:38:29;3.70;99.90
15262;DHT22;7733;51.554;13.590;2023-02-02T00:40:56;3.60;99.90
15262;DHT22;7733;51.554;13.590;2023-02-02T00:43:21;3.70;99.90
15262;DHT22;7733;51.554;13.590;2023-02-02T00:45:48;3.70;99.90
15262;DHT22;7733;51.554;13.590;2023-02-02T00:48:14;3.70;99.90
15262;DHT22;7733;51.554;13.590;2023-02-02T00:50:40;3.70;99.90
15262;DHT22;7733;51.554;13.590;2023-02-02T00:53:05;3.70;99.90
15262;DHT22;7733;51.554;13.590;2023-02-02T00:55:31;3.70;99.90
15262;DHT22;7733;51.554;13.590;2023-02-02T00:57:57;3.70;99.90
15262;DHT22;7733;51.554;13.590;2023-02-02T01:00:25;3.60;99.90
15262;DHT22;7733;51.554;13.590;2023-02-02T01:02:53;3.60;99.90
15262;DHT22;7733;51.554;13.590;2023-02-02T01:05:19;3.70;99.90
15262;DHT22;7733;51.554;13.590;2023-02-02T01:07:45;3.70;99.90
15262;DHT22;7733;51.554;13.590;2023-02-02T01:10:14;3.70;99.90
15262;DHT22;7733;51.554;13.590;2023-02-02T01:12:42;3.70;99.90
15262;DHT22;7733;51.554;13.590;2023-02-02T01:15:10;3.70;99.90
15262;DHT22;7733;51.554;13.590;2023-02-02T01:17:37;3.70;99.90
15262;DHT22;7733;51.554;13.590;2023-02-02T01:20:03;3.70;99.90
15262;DHT22;7733;51.554;13.590;2023-02-02T01:22:31;3.70;99.90
15262;DHT22;7733;51.554;13.590;2023-02-02T01:24:58;3.70;99.90
15262;DHT22;7733;51.554;13.590;2023-02-02T01:27:24;3.70;99.90
15262;DHT22;7733;51.554;13.590;2023-02-02T01:29:50;3.70;99.90
15262;DHT22;7733;51.554;13.590;2023-02-02T01:32:16;3.70;99.90
15262;DHT22;7733;51.554;13.590;2023-02-02T01:34:42;3.70;99.90
15262;DHT22;7733;51.554;13.590;2023-02-02T01:37:08;3.70;99.90
15262;DHT22;7733;51.554;13.590;2023-02-02T01:39:34;3.70;99.90
15262;DHT22;7733;51.554;13.590;2023-02-02T01:42:01;3.80;99.90
15262;DHT22;7733;51.554;13.590;2023-02-02T01:47:25;3.90;99.90
15262;DHT22;7733;51.554;13.590;2023-02-02T01:49:54;3.80;99.90
15262;DHT22;7733;51.554;13.590;2023-02-02T01:52:23;3.90;99.90
15262;DHT22;7733;51.554;13.590;2023-02-02T01:54:56;3.90;99.90
15262;DHT22;7733;51.554;13.590;2023-02-02T01:57:32;4.00;99.90
15262;DHT22;7733;51.554;13.590;2023-02-02T02:00:12;4.00;99.90
15262;DHT22;7733;51.554;13.590;2023-02-02T02:02:45;4.00;99.90
15262;DHT22;7733;51.554;13.590;2023-02-02T02:05:17;4.10;99.90
15262;DHT22;7733;51.554;13.590;2023-02-02T02:07:48;4.20;99.90
15262;DHT22;7733;51.554;13.590;2023-02-02T02:10:18;4.20;99.90
15262;DHT22;7733;51.554;13.590;2023-02-02T02:12:44;4.20;99.90
15262;DHT22;7733;51.554;13.590;2023-02-02T02:15:12;4.20;99.90
15262;DHT22;7733;51.554;13.590;2023-02-02T02:24:13;4.30;99.90
15262;DHT22;7733;51.554;13.590;2023-02-02T02:30:17;4.40;99.90
15262;DHT22;7733;51.554;13.590;2023-02-02T02:33:11;4.40;99.90
15262;DHT22;7733;51.554;13.590;2023-02-02T02:35:59;4.40;99.90
15262;DHT22;7733;51.554;13.590;2023-02-02T02:38:41;4.40;99.90
15262;DHT22;7733;51.554;13.590;2023-02-02T02:41:20;4.40;99.90
15262;DHT22;7733;51.554;13.590;2023-02-02T02:44:04;4.40;99.90
15262;DHT22;7733;51.554;13.590;2023-02-02T02:46:34;4.50;99.90
15262;DHT22;7733;51.554;13.590;2023-02-02T02:49:01;4.50;99.90
15262;DHT22;7733;51.554;13.590;2023-02-02T02:54:04;4.50;99.90
15262;DHT22;7733;51.554;13.590;2023-02-02T02:56:39;4.50;99.90
15262;DHT22;7733;51.554;13.590;2023-02-02T02:59:35;4.50;99.90
15262;DHT22;7733;51.554;13.590;2023-02-02T03:02:25;4.60;99.90
15262;DHT22;7733;51.554;13.590;2023-02-02T03:10:28;4.50;99.90
15262;DHT22;7733;51.554;13.590;2023-02-02T03:12:56;4.60;99.90
15262;DHT22;7733;51.554;13.590;2023-02-02T03:15:22;4.60;99.90
15262;DHT22;7733;51.554;13.590;2023-02-02T03:17:50;4.60;99.90
15262;DHT22;7733;51.554;13.590;2023-02-02T03:20:18;4.60;99.90
15262;DHT22;7733;51.554;13.590;2023-02-02T03:22:45;4.60;99.90
15262;DHT22;7733;51.554;13.590;2023-02-02T03:25:11;4.60;99.90
15262;DHT22;7733;51.554;13.590;2023-02-02T03:27:37;4.60;99.90
15262;DHT22;7733;51.554;13.590;2023-02-02T03:30:06;4.60;99.90
15262;DHT22;7733;51.554;13.590;2023-02-02T03:32:35;4.60;99.90
15262;DHT22;7733;51.554;13.590;2023-02-02T03:35:02;4.60;99.90
15262;DHT22;7733;51.554;13.590;2023-02-02T03:37:28;4.70;99.90
15262;DHT22;7733;51.554;13.590;2023-02-02T03:39:54;4.60;99.90
15262;DHT22;7733;51.554;13.590;2023-02-02T03:42:19;4.60;99.90
15262;DHT22;7733;51.554;13.590;2023-02-02T03:44:45;4.70;99.90
15262;DHT22;7733;51.554;13.590;2023-02-02T03:47:11;4.70;99.90
15262;DHT22;7733;51.554;13.590;2023-02-02T03:49:36;4.60;99.90
15262;DHT22;7733;51.554;13.590;2023-02-02T03:52:02;4.60;99.90
15262;DHT22;7733;51.554;13.590;2023-02-02T03:54:29;4.70;99.90
15262;DHT22;7733;51.554;13.590;2023-02-02T03:56:55;4.70;99.90
15262;DHT22;7733;51.554;13.590;2023-02-02T03:59:22;4.70;99.90
15262;DHT22;7733;51.554;13.590;2023-02-02T04:01:48;4.80;99.90
15262;DHT22;7733;51.554;13.590;2023-02-02T04:04:13;4.70;99.90
15262;DHT22;7733;51.554;13.590;2023-02-02T04:06:39;4.80;99.90
15262;DHT22;7733;51.554;13.590;2023-02-02T04:09:05;4.80;99.90
15262;DHT22;7733;51.554;13.590;2023-02-02T04:11:31;4.80;99.90
15262;DHT22;7733;51.554;13.590;2023-02-02T04:13:57;4.80;99.90
15262;DHT22;7733;51.554;13.590;2023-02-02T04:16:22;4.90;99.90
15262;DHT22;7733;51.554;13.590;2023-02-02T04:18:48;4.90;99.90
15262;DHT22;7733;51.554;13.590;2023-02-02T04:21:14;4.90;99.90
15262;DHT22;7733;51.554;13.590;2023-02-02T04:23:40;4.90;99.90
15262;DHT22;7733;51.554;13.590;2023-02-02T04:26:05;4.90;99.90
15262;DHT22;7733;51.554;13.590;2023-02-02T04:28:31;4.90;99.90
15262;DHT22;7733;51.554;13.590;2023-02-02T04:30:57;4.90;99.90
15262;DHT22;7733;51.554;13.590;2023-02-02T04:33:25;4.90;99.90
15262;DHT22;7733;51.554;13.590;2023-02-02T04:35:51;4.90;99.90
15262;DHT22;7733;51.554;13.590;2023-02-02T04:38:18;5.00;99.90
15262;DHT22;7733;51.554;13.590;2023-02-02T04:40:45;5.10;99.90
15262;DHT22;7733;51.554;13.590;2023-02-02T04:43:13;5.10;99.90
15262;DHT22;7733;51.554;13.590;2023-02-02T04:45:39;5.10;99.90
15262;DHT22;7733;51.554;13.590;2023-02-02T04:48:06;5.10;99.90
15262;DHT22;7733;51.554;13.590;2023-02-02T04:50:32;5.10;99.90
15262;DHT22;7733;51.554;13.590;2023-02-02T04:52:58;5.10;99.90
15262;DHT22;7733;51.554;13.590;2023-02-02T04:55:24;5.10;99.90
15262;DHT22;7733;51.554;13.590;2023-02-02T04:57:49;5.10;99.90
15262;DHT22;7733;51.554;13.590;2023-02-02T05:00:15;5.10;99.90
15262;DHT22;7733;51.554;13.590;2023-02-02T05:02:42;5.00;99.90
15262;DHT22;7733;51.554;13.590;2023-02-02T05:05:10;5.00;99.90
15262;DHT22;7733;51.554;13.590;2023-02-02T05:07:38;5.00;99.90
15262;DHT22;7733;51.554;13.590;2023-02-02T05:10:06;5.00;99.90
15262;DHT22;7733;51.554;13.590;2023-02-02T05:12:33;4.90;99.90
15262;DHT22;7733;51.554;13.590;2023-02-02T05:14:58;4.90;99.90
15262;DHT22;7733;51.554;13.590;2023-02-02T05:17:30;5.00;99.90
15262;DHT22;7733;51.554;13.590;2023-02-02T05:19:56;5.00;99.90
15262;DHT22;7733;51.554;13.590;2023-02-02T05:22:22;5.00;99.90
15262;DHT22;7733;51.554;13.590;2023-02-02T05:24:47;5.00;99.90
15262;DHT22;7733;51.554;13.590;2023-02-02T05:27:13;5.00;99.90
15262;DHT22;7733;51.554;13.590;2023-02-02T05:29:39;5.00;99.90
15262;DHT22;7733;51.554;13.590;2023-02-02T05:32:04;5.00;99.90
15262;DHT22;7733;51.554;13.590;2023-02-02T05:34:30;5.00;99.90
15262;DHT22;7733;51.554;13.590;2023-02-02T05:36:56;5.10;99.90
15262;DHT22;7733;51.554;13.590;2023-02-02T05:39:22;5.10;99.90
15262;DHT22;7733;51.554;13.590;2023-02-02T05:41:48;5.10;99.90
15262;DHT22;7733;51.554;13.590;2023-02-02T05:44:14;5.10;99.90
15262;DHT22;7733;51.554;13.590;2023-02-02T05:46:40;5.10;99.90
15262;DHT22;7733;51.554;13.590;2023-02-02T05:49:06;5.00;99.90
15262;DHT22;7733;51.554;13.590;2023-02-02T05:51:38;5.00;99.90
15262;DHT22;7733;51.554;13.590;2023-02-02T05:54:07;5.00;99.90
15262;DHT22;7733;51.554;13.590;2023-02-02T05:56:33;5.00;99.90
15262;DHT22;7733;51.554;13.590;2023-02-02T05:58:59;5.00;99.90
15262;DHT22;7733;51.554;13.590;2023-02-02T06:01:25;5.00;99.90
15262;DHT22;7733;51.554;13.590;2023-02-02T06:03:51;5.00;99.90
15262;DHT22;7733;51.554;13.590;2023-02-02T06:06:17;5.00;99.90
15262;DHT22;7733;51.554;13.590;2023-02-02T06:08:42;5.00;99.90
15262;DHT22;7733;51.554;13.590;2023-02-02T06:11:13;5.10;99.90
15262;DHT22;7733;51.554;13.590;2023-02-02T06:13:40;5.10;99.90
15262;DHT22;7733;51.554;13.590;2023-02-02T06:16:07;5.10;99.90
15262;DHT22;7733;51.554;13.590;2023-02-02T06:18:34;5.00;99.90
15262;DHT22;7733;51.554;13.590;2023-02-02T06:21:02;4.90;99.90
15262;DHT22;7733;51.554;13.590;2023-02-02T06:23:31;4.90;99.90
15262;DHT22;7733;51.554;13.590;2023-02-02T06:25:58;4.80;99.90
15262;DHT22;7733;51.554;13.590;2023-02-02T06:28:24;4.80;99.90
15262;DHT22;7733;51.554;13.590;2023-02-02T06:30:50;4.80;99.90
15262;DHT22;7733;51.554;13.590;2023-02-02T06:33:16;4.70;99.90
15262;DHT22;7733;51.554;13.590;2023-02-02T06:35:42;4.60;99.90
15262;DHT22;7733;51.554;13.590;2023-02-02T06:38:08;4.60;99.90
15262;DHT22;7733;51.554;13.590;2023-02-02T06:40:35;4.50;99.90
15262;DHT22;7733;51.554;13.590;2023-02-02T06:43:01;4.40;99.90
15262;DHT22;7733;51.554;13.590;2023-02-02T06:45:28;4.30;99.90
15262;DHT22;7733;51.554;13.590;2023-02-02T06:47:59;4.30;99.90
15262;DHT22;7733;51.554;13.590;2023-02-02T06:50:28;4.30;99.90
15262;DHT22;7733;51.554;13.590;2023-02-02T06:52:54;4.30;99.90
15262;DHT22;7733;51.554;13.590;2023-02-02T06:55:20;4.30;99.90
15262;DHT22;7733;51.554;13.590;2023-02-02T06:57:46;4.30;99.90
15262;DHT22;7733;51.554;13.590;2023-02-02T07:00:12;4.30;99.90
15262;DHT22;7733;51.554;13.590;2023-02-02T07:02:39;4.40;99.90
15262;DHT22;7733;51.554;13.590;2023-02-02T07:05:04;4.40;99.90
15262;DHT22;7733;51.554;13.590;2023-02-02T07:07:32;4.40;99.90
15262;DHT22;7733;51.554;13.590;2023-02-02T07:09:59;4.40;99.90
15262;DHT22;7733;51.554;13.590;2023-02-02T07:12:25;4.50;99.90
15262;DHT22;7733;51.554;13.590;2023-02-02T07:14:51;4.50;99.90
15262;DHT22;7733;51.554;13.590;2023-02-02T07:17:18;4.50;99.90
15262;DHT22;7733;51.554;13.590;2023-02-02T07:19:44;4.60;99.90
15262;DHT22;7733;51.554;13.590;2023-02-02T07:22:10;4.60;99.90
15262;DHT22;7733;51.554;13.590;2023-02-02T07:24:36;4.50;99.90
15262;DHT22;7733;51.554;13.590;2023-02-02T07:27:04;4.60;99.90
15262;DHT22;7733;51.554;13.590;2023-02-02T07:29:30;4.60;99.90
15262;DHT22;7733;51.554;13.590;2023-02-02T07:31:56;4.60;99.90
15262;DHT22;7733;51.554;13.590;2023-02-02T07:34:22;4.60;99.90
15262;DHT22;7733;51.554;13.590;2023-02-02T07:36:48;4.60;99.90
15262;DHT22;7733;51.554;13.590;2023-02-02T07:39:13;4.50;99.90
15262;DHT22;7733;51.554;13.590;2023-02-02T07:41:39;4.60;99.90
15262;DHT22;7733;51.554;13.590;2023-02-02T07:44:05;4.60;99.90
15262;DHT22;7733;51.554;13.590;2023-02-02T07:46:31;4.60;99.90
15262;DHT22;7733;51.554;13.590;2023-02-02T07:48:57;4.60;99.90
15262;DHT22;7733;51.554;13.590;2023-02-02T07:51:24;4.60;99.90
15262;DHT22;7733;51.554;13.590;2023-02-02T07:53:54;4.60;99.90
15262;DHT22;7733;51.554;13.590;2023-02-02T07:56:25;4.60;99.90
15262;DHT22;7733;51.554;13.590;2023-02-02T07:58:55;4.60;99.90
15262;DHT22;7733;51.554;13.590;2023-02-02T08:01:22;4.60;99.90
15262;DHT22;7733;51.554;13.590;2023-02-02T08:03:50;4.60;99.90
15262;DHT22;7733;51.554;13.590;2023-02-02T08:06:23;4.60;99.90
15262;DHT22;7733;51.554;13.590;2023-02-02T08:08:52;4.60;99.90
15262;DHT22;7733;51.554;13.590;2023-02-02T08:11:20;4.60;99.90
15262;DHT22;7733;51.554;13.590;2023-02-02T08:13:51;4.60;99.90
15262;DHT22;7733;51.554;13.590;2023-02-02T08:16:22;4.60;99.90
15262;DHT22;7733;51.554;13.590;2023-02-02T08:18:48;4.60;99.90
15262;DHT22;7733;51.554;13.590;2023-02-02T08:21:16;4.50;99.90
15262;DHT22;7733;51.554;13.590;2023-02-02T08:23:43;4.50;99.90
15262;DHT22;7733;51.554;13.590;2023-02-02T08:26:14;4.50;99.90
15262;DHT22;7733;51.554;13.590;2023-02-02T08:28:40;4.50;99.90
15262;DHT22;7733;51.554;13.590;2023-02-02T08:31:11;4.50;99.90
15262;DHT22;7733;51.554;13.590;2023-02-02T08:33:39;4.50;99.90
15262;DHT22;7733;51.554;13.590;2023-02-02T08:36:10;4.50;99.90
15262;DHT22;7733;51.554;13.590;2023-02-02T08:38:38;4.50;99.90
15262;DHT22;7733;51.554;13.590;2023-02-02T08:41:06;4.50;99.90
15262;DHT22;7733;51.554;13.590;2023-02-02T08:43:34;4.40;99.90
15262;DHT22;7733;51.554;13.590;2023-02-02T08:46:00;4.30;99.90
15262;DHT22;7733;51.554;13.590;2023-02-02T08:48:26;4.20;99.90
15262;DHT22;7733;51.554;13.590;2023-02-02T08:50:56;4.10;99.90
15262;DHT22;7733;51.554;13.590;2023-02-02T08:53:23;4.10;99.90
15262;DHT22;7733;51.554;13.590;2023-02-02T08:58:23;4.00;99.90
15262;DHT22;7733;51.554;13.590;2023-02-02T09:00:49;4.10;99.90
15262;DHT22;7733;51.554;13.590;2023-02-02T09:03:15;4.10;99.90
15262;DHT22;7733;51.554;13.590;2023-02-02T09:05:41;4.10;99.90
15262;DHT22;7733;51.554;13.590;2023-02-02T09:08:07;4.20;99.90
15262;DHT22;7733;51.554;13.590;2023-02-02T09:10:36;4.20;99.90
15262;DHT22;7733;51.554;13.590;2023-02-02T09:13:02;4.30;99.90
15262;DHT22;7733;51.554;13.590;2023-02-02T09:15:29;4.30;99.90
15262;DHT22;7733;51.554;13.590;2023-02-02T09:17:55;4.30;99.90
15262;DHT22;7733;51.554;13.590;2023-02-02T09:20:21;4.40;99.90
15262;DHT22;7733;51.554;13.590;2023-02-02T09:22:47;4.50;99.90
15262;DHT22;7733;51.554;13.590;2023-02-02T09:25:13;4.60;99.90
15262;DHT22;7733;51.554;13.590;2023-02-02T09:27:39;4.60;99.90
15262;DHT22;7733;51.554;13.590;2023-02-02T09:30:07;4.80;99.90
15262;DHT22;7733;51.554;13.590;2023-02-02T09:32:33;4.80;99.90
15262;DHT22;7733;51.554;13.590;2023-02-02T09:34:59;4.90;99.90
15262;DHT22;7733;51.554;13.590;2023-02-02T09:37:28;5.00;99.90
15262;DHT22;7733;51.554;13.590;2023-02-02T09:39:53;5.10;99.90
15262;DHT22;7733;51.554;13.590;2023-02-02T09:42:34;5.20;99.90
15262;DHT22;7733;51.554;13.590;2023-02-02T09:45:50;5.20;99.90
15262;DHT22;7733;51.554;13.590;2023-02-02T09:48:48;5.20;99.90
15262;DHT22;7733;51.554;13.590;2023-02-02T09:51:32;5.10;99.90
15262;DHT22;7733;51.554;13.590;2023-02-02T09:56:48;5.10;99.90
15262;DHT22;7733;51.554;13.590;2023-02-02T09:59:23;5.10;99.90
15262;DHT22;7733;51.554;13.590;2023-02-02T10:01:56;5.10;99.90
15262;DHT22;7733;51.554;13.590;2023-02-02T10:04:35;5.20;99.90
15262;DHT22;7733;51.554;13.590;2023-02-02T10:07:32;5.20;99.90
15262;DHT22;7733;51.554;13.590;2023-02-02T10:10:13;5.20;99.90
15262;DHT22;7733;51.554;13.590;2023-02-02T10:12:58;5.20;99.90
15262;DHT22;7733;51.554;13.590;2023-02-02T10:15:58;5.20;99.90
15262;DHT22;7733;51.554;13.590;2023-02-02T10:18:47;5.20;99.90
15262;DHT22;7733;51.554;13.590;2023-02-02T10:23:52;5.30;99.90
15262;DHT22;7733;51.554;13.590;2023-02-02T10:26:38;5.30;99.90
15262;DHT22;7733;51.554;13.590;2023-02-02T10:40:54;5.50;99.90
15262;DHT22;7733;51.554;13.590;2023-02-02T10:46:37;5.60;99.90
15262;DHT22;7733;51.554;13.590;2023-02-02T10:49:13;5.60;99.90
15262;DHT22;7733;51.554;13.590;2023-02-02T10:51:40;5.50;99.90
15262;DHT22;7733;51.554;13.590;2023-02-02T10:55:06;5.50;99.90
15262;DHT22;7733;51.554;13.590;2023-02-02T11:03:04;5.70;99.90
15262;DHT22;7733;51.554;13.590;2023-02-02T11:05:35;5.90;99.90
15262;DHT22;7733;51.554;13.590;2023-02-02T11:08:40;5.90;99.90
15262;DHT22;7733;51.554;13.590;2023-02-02T11:11:16;5.90;99.90
15262;DHT22;7733;51.554;13.590;2023-02-02T11:13:58;5.80;99.90
15262;DHT22;7733;51.554;13.590;2023-02-02T11:16:30;5.70;99.90
15262;DHT22;7733;51.554;13.590;2023-02-02T11:18:57;5.60;99.90
15262;DHT22;7733;51.554;13.590;2023-02-02T11:21:28;5.60;99.90
15262;DHT22;7733;51.554;13.590;2023-02-02T11:24:05;5.60;99.90
15262;DHT22;7733;51.554;13.590;2023-02-02T11:26:48;5.70;99.90
15262;DHT22;7733;51.554;13.590;2023-02-02T11:31:53;5.70;99.90
15262;DHT22;7733;51.554;13.590;2023-02-02T11:34:23;5.70;99.90
15262;DHT22;7733;51.554;13.590;2023-02-02T11:39:26;5.70;99.90
15262;DHT22;7733;51.554;13.590;2023-02-02T11:44:53;5.80;99.90
15262;DHT22;7733;51.554;13.590;2023-02-02T11:47:27;5.90;99.90
15262;DHT22;7733;51.554;13.590;2023-02-02T11:49:57;6.00;99.90
15262;DHT22;7733;51.554;13.590;2023-02-02T11:52:26;6.00;99.90
15262;DHT22;7733;51.554;13.590;2023-02-02T11:55:00;6.20;99.90
15262;DHT22;7733;51.554;13.590;2023-02-02T11:57:33;6.30;99.90
15262;DHT22;7733;51.554;13.590;2023-02-02T12:00:17;6.20;99.90
15262;DHT22;7733;51.554;13.590;2023-02-02T12:02:51;6.20;99.90
15262;DHT22;7733;51.554;13.590;2023-02-02T12:07:46;6.10;99.90
15262;DHT22;7733;51.554;13.590;2023-02-02T12:13:35;6.10;99.90
15262;DHT22;7733;51.554;13.590;2023-02-02T12:21:51;6.20;99.90
15262;DHT22;7733;51.554;13.590;2023-02-02T12:24:34;6.20;99.90
15262;DHT22;7733;51.554;13.590;2023-02-02T12:27:16;6.10;99.90
15262;DHT22;7733;51.554;13.590;2023-02-02T12:35:47;6.20;99.90
15262;DHT22;7733;51.554;13.590;2023-02-02T12:44:22;6.10;99.90
15262;DHT22;7733;51.554;13.590;2023-02-02T12:59:01;6.00;99.90
15262;DHT22;7733;51.554;13.590;2023-02-02T13:07:54;4.90;99.90
15262;DHT22;7733;51.554;13.590;2023-02-02T13:10:29;4.60;99.90
15262;DHT22;7733;51.554;13.590;2023-02-02T13:13:08;4.50;99.90
15262;DHT22;7733;51.554;13.590;2023-02-02T13:15:47;4.70;99.90
15262;DHT22;7733;51.554;13.590;2023-02-02T13:18:25;4.70;99.90
15262;DHT22;7733;51.554;13.590;2023-02-02T13:20:57;4.80;99.90
15262;DHT22;7733;51.554;13.590;2023-02-02T13:23:34;4.80;99.90
15262;DHT22;7733;51.554;13.590;2023-02-02T13:26:24;4.90;99.90
15262;DHT22;7733;51.554;13.590;2023-02-02T13:29:06;4.90;99.90
15262;DHT22;7733;51.554;13.590;2023-02-02T13:31:56;5.00;99.90
15262;DHT22;7733;51.554;13.590;2023-02-02T13:53:56;5.80;99.90
15262;DHT22;7733;51.554;13.590;2023-02-02T13:56:46;6.00;99.90
15262;DHT22;7733;51.554;13.590;2023-02-02T13:59:34;6.00;99.90
15262;DHT22;7733;51.554;13.590;2023-02-02T14:05:33;6.20;99.90
15262;DHT22;7733;51.554;13.590;2023-02-02T14:08:06;6.30;99.90
15262;DHT22;7733;51.554;13.590;2023-02-02T14:10:41;6.30;99.90
15262;DHT22;7733;51.554;13.590;2023-02-02T14:13:16;6.30;99.90
15262;DHT22;7733;51.554;13.590;2023-02-02T14:16:23;6.30;99.90
15262;DHT22;7733;51.554;13.590;2023-02-02T14:31:59;6.20;99.90
15262;DHT22;7733;51.554;13.590;2023-02-02T14:34:37;6.20;99.90
15262;DHT22;7733;51.554;13.590;2023-02-02T14:48:45;5.30;99.90
15262;DHT22;7733;51.554;13.590;2023-02-02T14:51:16;5.10;99.90
15262;DHT22;7733;51.554;13.590;2023-02-02T14:53:49;5.10;99.90
15262;DHT22;7733;51.554;13.590;2023-02-02T14:56:39;5.10;99.90
15262;DHT22;7733;51.554;13.590;2023-02-02T14:59:17;5.00;99.90
15262;DHT22;7733;51.554;13.590;2023-02-02T15:04:25;5.00;99.90
15262;DHT22;7733;51.554;13.590;2023-02-02T15:06:52;5.00;99.90
15262;DHT22;7733;51.554;13.590;2023-02-02T15:20:30;4.90;99.90
15262;DHT22;7733;51.554;13.590;2023-02-02T15:26:20;4.80;99.90
15262;DHT22;7733;51.554;13.590;2023-02-02T15:29:05;4.70;99.90
15262;DHT22;7733;51.554;13.590;2023-02-02T15:31:42;4.70;99.90
15262;DHT22;7733;51.554;13.590;2023-02-02T15:34:58;4.60;99.90
15262;DHT22;7733;51.554;13.590;2023-02-02T15:37:20;4.60;99.90
15262;DHT22;7733;51.554;13.590;2023-02-02T15:39:51;4.60;99.90
15262;DHT22;7733;51.554;13.590;2023-02-02T15:42:44;4.60;99.90
15262;DHT22;7733;51.554;13.590;2023-02-02T15:45:45;4.60;99.90
15262;DHT22;7733;51.554;13.590;2023-02-02T15:50:56;4.50;99.90
15262;DHT22;7733;51.554;13.590;2023-02-02T15:58:51;4.40;99.90
15262;DHT22;7733;51.554;13.590;2023-02-02T16:01:23;4.30;99.90
15262;DHT22;7733;51.554;13.590;2023-02-02T16:06:38;4.30;99.90
15262;DHT22;7733;51.554;13.590;2023-02-02T16:09:05;4.30;99.90
15262;DHT22;7733;51.554;13.590;2023-02-02T16:11:32;4.20;99.90
15262;DHT22;7733;51.554;13.590;2023-02-02T16:14:01;4.20;99.90
15262;DHT22;7733;51.554;13.590;2023-02-02T16:16:35;4.20;99.90
15262;DHT22;7733;51.554;13.590;2023-02-02T16:21:36;4.20;99.90
15262;DHT22;7733;51.554;13.590;2023-02-02T16:24:13;4.20;99.90
15262;DHT22;7733;51.554;13.590;2023-02-02T16:26:43;4.10;99.90
15262;DHT22;7733;51.554;13.590;2023-02-02T16:29:11;4.10;99.90
15262;DHT22;7733;51.554;13.590;2023-02-02T16:31:47;4.00;99.90
15262;DHT22;7733;51.554;13.590;2023-02-02T16:37:19;4.00;99.90
15262;DHT22;7733;51.554;13.590;2023-02-02T16:40:27;4.00;99.90
15262;DHT22;7733;51.554;13.590;2023-02-02T16:43:14;3.90;99.90
15262;DHT22;7733;51.554;13.590;2023-02-02T16:45:56;3.90;99.90
15262;DHT22;7733;51.554;13.590;2023-02-02T16:54:09;3.80;99.90
15262;DHT22;7733;51.554;13.590;2023-02-02T16:56:40;3.80;99.90
15262;DHT22;7733;51.554;13.590;2023-02-02T16:59:31;3.80;99.90
15262;DHT22;7733;51.554;13.590;2023-02-02T17:02:03;3.90;99.90
15262;DHT22;7733;51.554;13.590;2023-02-02T17:04:51;3.90;99.90
15262;DHT22;7733;51.554;13.590;2023-02-02T17:07:23;3.80;99.90
15262;DHT22;7733;51.554;13.590;2023-02-02T17:10:13;3.80;99.90
15262;DHT22;7733;51.554;13.590;2023-02-02T17:12:44;3.80;99.90
15262;DHT22;7733;51.554;13.590;2023-02-02T17:17:46;3.70;99.90
15262;DHT22;7733;51.554;13.590;2023-02-02T17:20:17;3.70;99.90
15262;DHT22;7733;51.554;13.590;2023-02-02T17:22:46;3.70;99.90
15262;DHT22;7733;51.554;13.590;2023-02-02T17:25:16;3.80;99.90
15262;DHT22;7733;51.554;13.590;2023-02-02T17:27:44;3.80;99.90
15262;DHT22;7733;51.554;13.590;2023-02-02T17:30:15;3.90;99.90
15262;DHT22;7733;51.554;13.590;2023-02-02T17:32:42;3.90;99.90
15262;DHT22;7733;51.554;13.590;2023-02-02T17:35:21;3.80;99.90
15262;DHT22;7733;51.554;13.590;2023-02-02T17:37:49;3.80;99.90
15262;DHT22;7733;51.554;13.590;2023-02-02T17:40:21;3.80;99.90
15262;DHT22;7733;51.554;13.590;2023-02-02T17:42:50;3.70;99.90
15262;DHT22;7733;51.554;13.590;2023-02-02T17:45:21;3.60;99.90
15262;DHT22;7733;51.554;13.590;2023-02-02T17:47:52;3.50;99.90
15262;DHT22;7733;51.554;13.590;2023-02-02T17:50:18;3.40;99.90
15262;DHT22;7733;51.554;13.590;2023-02-02T17:52:45;3.30;99.90
15262;DHT22;7733;51.554;13.590;2023-02-02T17:55:19;3.30;99.90
15262;DHT22;7733;51.554;13.590;2023-02-02T17:57:56;3.30;99.90
15262;DHT22;7733;51.554;13.590;2023-02-02T18:00:24;3.20;99.90
15262;DHT22;7733;51.554;13.590;2023-02-02T18:02:53;3.20;99.90
15262;DHT22;7733;51.554;13.590;2023-02-02T18:05:23;3.20;99.90
15262;DHT22;7733;51.554;13.590;2023-02-02T18:07:48;3.10;99.90
15262;DHT22;7733;51.554;13.590;2023-02-02T18:10:14;3.10;99.90
15262;DHT22;7733;51.554;13.590;2023-02-02T18:12:41;3.10;99.90
15262;DHT22;7733;51.554;13.590;2023-02-02T18:15:11;3.10;99.90
15262;DHT22;7733;51.554;13.590;2023-02-02T18:17:39;3.20;99.90
15262;DHT22;7733;51.554;13.590;2023-02-02T18:20:05;3.20;99.90
15262;DHT22;7733;51.554;13.590;2023-02-02T18:22:32;3.30;99.90
15262;DHT22;7733;51.554;13.590;2023-02-02T18:24:58;3.20;99.90
15262;DHT22;7733;51.554;13.590;2023-02-02T18:27:24;3.10;99.90
15262;DHT22;7733;51.554;13.590;2023-02-02T18:29:50;3.00;99.90
15262;DHT22;7733;51.554;13.590;2023-02-02T18:32:16;3.00;99.90
15262;DHT22;7733;51.554;13.590;2023-02-02T18:34:42;3.10;99.90
15262;DHT22;7733;51.554;13.590;2023-02-02T18:37:10;3.10;99.90
15262;DHT22;7733;51.554;13.590;2023-02-02T18:39:36;3.10;99.90
15262;DHT22;7733;51.554;13.590;2023-02-02T18:42:01;3.10;99.90
15262;DHT22;7733;51.554;13.590;2023-02-02T18:44:27;3.10;99.90
15262;DHT22;7733;51.554;13.590;2023-02-02T18:46:54;3.10;99.90
15262;DHT22;7733;51.554;13.590;2023-02-02T18:49:20;3.10;99.90
15262;DHT22;7733;51.554;13.590;2023-02-02T18:51:46;3.20;99.90
15262;DHT22;7733;51.554;13.590;2023-02-02T18:54:12;3.20;99.90
15262;DHT22;7733;51.554;13.590;2023-02-02T18:56:39;3.20;99.90
15262;DHT22;7733;51.554;13.590;2023-02-02T18:59:05;3.20;99.90
15262;DHT22;7733;51.554;13.590;2023-02-02T19:01:31;3.20;99.90
15262;DHT22;7733;51.554;13.590;2023-02-02T19:03:58;3.10;99.90
15262;DHT22;7733;51.554;13.590;2023-02-02T19:06:25;3.00;99.90
15262;DHT22;7733;51.554;13.590;2023-02-02T19:09:10;3.00;99.90
15262;DHT22;7733;51.554;13.590;2023-02-02T19:11:49;2.80;99.90
15262;DHT22;7733;51.554;13.590;2023-02-02T19:14:19;2.50;99.90
15262;DHT22;7733;51.554;13.590;2023-02-02T19:16:51;2.60;99.90
15262;DHT22;7733;51.554;13.590;2023-02-02T19:19:31;2.60;99.90